sensor_id;sensor_type;location;lat;lon;timestamp;pressure;altitude;pressure_sealevel;temperature;humidity
17521;BME280;8878;-33.370;-70.552;2023-02-10T00:01:52;91762.16;;;31.03;30.06
17521;BME280;8878;-33.370;-70.552;2023-02-10T00:04:21;91770.72;;;31.02;30.36
17521;BME280;8878;-33.370;-70.552;2023-02-10T00:06:50;91770.84;;;30.84;30.49
17521;BME280;8878;-33.370;-70.552;2023-02-10T00:09:20;91765.88;;;30.76;31.12
17521;BME280;8878;-33.370;-70.552;2023-02-10T00:11:49;91769.88;;;30.60;31.77
17521;BME280;8878;-33.370;-70.552;2023-02-10T00:14:30;91763.66;;;30.49;32.21
17521;BME280;8878;-33.370;-70.552;2023-02-10T00:17:02;91775.84;;;30.30;31.82
17521;BME280;8878;-33.370;-70.552;2023-02-10T00:19:31;91771.56;;;30.29;31.65
17521;BME280;8878;-33.370;-70.552;2023-02-10T00:22:01;91774.31;;;30.22;31.54
17521;BME280;8878;-33.370;-70.552;2023-02-10T00:24:31;91782.47;;;30.22;32.01
17521;BME280;8878;-33.370;-70.552;2023-02-10T00:27:00;91775.16;;;30.09;31.34
17521;BME280;8878;-33.370;-70.552;2023-02-10T00:29:30;91778.28;;;30.07;31.02
17521;BME280;8878;-33.370;-70.552;2023-02-10T00:32:02;91784.50;;;30.01;30.65
17521;BME280;8878;-33.370;-70.552;2023-02-10T00:34:31;91781.03;;;30.00;30.89
17521;BME280;8878;-33.370;-70.552;2023-02-10T00:37:02;91788.78;;;30.05;31.95
17521;BME280;8878;-33.370;-70.552;2023-02-10T00:39:31;91786.06;;;30.02;32.00
17521;BME280;8878;-33.370;-70.552;2023-02-10T00:42:01;91791.97;;;29.75;33.28
17521;BME280;8878;-33.370;-70.552;2023-02-10T00:44:30;91788.13;;;29.58;34.31
17521;BME280;8878;-33.370;-70.552;2023-02-10T00:47:01;91790.47;;;29.42;34.50
17521;BME280;8878;-33.370;-70.552;2023-02-10T00:49:31;91797.06;;;29.45;33.67
17521;BME280;8878;-33.370;-70.552;2023-02-10T00:52:00;91796.69;;;29.46;33.83
17521;BME280;8878;-33.370;-70.552;2023-02-10T00:54:30;91798.25;;;29.40;34.51
17521;BME280;8878;-33.370;-70.552;2023-02-10T00:56:59;91795.91;;;29.07;35.34
17521;BME280;8878;-33.370;-70.552;2023-02-10T00:59:28;91809.91;;;28.91;35.18
17521;BME280;8878;-33.370;-70.552;2023-02-10T01:01:57;91804.44;;;28.95;34.12
17521;BME280;8878;-33.370;-70.552;2023-02-10T01:04:28;91808.34;;;28.90;33.68
17521;BME280;8878;-33.370;-70.552;2023-02-10T01:06:58;91812.59;;;28.84;34.18
17521;BME280;8878;-33.370;-70.552;2023-02-10T01:09:28;91810.25;;;28.75;34.33
17521;BME280;8878;-33.370;-70.552;2023-02-10T01:11:57;91816.81;;;28.74;35.02
17521;BME280;8878;-33.370;-70.552;2023-02-10T01:14:27;91822.63;;;28.73;34.66
17521;BME280;8878;-33.370;-70.552;2023-02-10T01:16:56;91819.47;;;28.57;35.33
17521;BME280;8878;-33.370;-70.552;2023-02-10T01:19:28;91812.09;;;28.43;36.59
17521;BME280;8878;-33.370;-70.552;2023-02-10T01:21:57;91814.03;;;28.39;35.34
17521;BME280;8878;-33.370;-70.552;2023-02-10T01:24:27;91812.06;;;28.36;34.40
17521;BME280;8878;-33.370;-70.552;2023-02-10T01:26:56;91809.34;;;28.29;33.44
17521;BME280;8878;-33.370;-70.552;2023-02-10T01:29:26;91820.63;;;28.38;33.30
17521;BME280;8878;-33.370;-70.552;2023-02-10T01:31:56;91823.72;;;28.33;34.72
17521;BME280;8878;-33.370;-70.552;2023-02-10T01:34:25;91814.22;;;27.95;35.03
17521;BME280;8878;-33.370;-70.552;2023-02-10T01:36:56;91808.47;;;28.03;35.31
17521;BME280;8878;-33.370;-70.552;2023-02-10T01:39:26;91815.03;;;28.02;36.48
17521;BME280;8878;-33.370;-70.552;2023-02-10T01:41:55;91808.88;;;28.05;34.74
17521;BME280;8878;-33.370;-70.552;2023-02-10T01:47:29;91805.72;;;28.00;35.69
17521;BME280;8878;-33.370;-70.552;2023-02-10T01:49:58;91813.50;;;28.09;35.02
17521;BME280;8878;-33.370;-70.552;2023-02-10T01:52:29;91807.41;;;28.26;36.19
17521;BME280;8878;-33.370;-70.552;2023-02-10T01:55:01;91812.72;;;28.04;36.65
17521;BME280;8878;-33.370;-70.552;2023-02-10T01:57:34;91809.59;;;27.95;36.81
17521;BME280;8878;-33.370;-70.552;2023-02-10T02:00:05;91811.84;;;27.83;36.84
17521;BME280;8878;-33.370;-70.552;2023-02-10T02:02:34;91814.09;;;27.66;37.09
17521;BME280;8878;-33.370;-70.552;2023-02-10T02:05:22;91812.13;;;27.60;37.44
17521;BME280;8878;-33.370;-70.552;2023-02-10T02:08:00;91814.88;;;27.63;37.52
17521;BME280;8878;-33.370;-70.552;2023-02-10T02:10:38;91816.28;;;27.47;36.54
17521;BME280;8878;-33.370;-70.552;2023-02-10T02:13:15;91813.09;;;27.34;36.00
17521;BME280;8878;-33.370;-70.552;2023-02-10T02:15:50;91819.41;;;27.49;36.64
17521;BME280;8878;-33.370;-70.552;2023-02-10T02:18:26;91825.63;;;27.53;36.63
17521;BME280;8878;-33.370;-70.552;2023-02-10T02:21:32;91823.38;;;27.62;36.19
17521;BME280;8878;-33.370;-70.552;2023-02-10T02:24:21;91821.84;;;27.72;36.10
17521;BME280;8878;-33.370;-70.552;2023-02-10T02:27:23;91818.00;;;27.69;36.55
17521;BME280;8878;-33.370;-70.552;2023-02-10T02:33:02;91824.13;;;27.59;36.76
17521;BME280;8878;-33.370;-70.552;2023-02-10T02:35:37;91821.00;;;27.53;36.66
17521;BME280;8878;-33.370;-70.552;2023-02-10T02:38:08;91821.69;;;27.50;36.93
17521;BME280;8878;-33.370;-70.552;2023-02-10T02:40:38;91820.44;;;27.34;37.12
17521;BME280;8878;-33.370;-70.552;2023-02-10T02:43:07;91810.97;;;27.06;36.57
17521;BME280;8878;-33.370;-70.552;2023-02-10T02:45:42;91820.31;;;27.12;37.29
17521;BME280;8878;-33.370;-70.552;2023-02-10T02:48:28;91814.13;;;27.15;37.62
17521;BME280;8878;-33.370;-70.552;2023-02-10T02:51:05;91817.50;;;27.02;38.13
17521;BME280;8878;-33.370;-70.552;2023-02-10T02:53:41;91816.84;;;26.71;37.91
17521;BME280;8878;-33.370;-70.552;2023-02-10T02:56:20;91816.84;;;26.75;37.23
17521;BME280;8878;-33.370;-70.552;2023-02-10T02:58:56;91816.19;;;26.88;37.68
17521;BME280;8878;-33.370;-70.552;2023-02-10T03:01:31;91816.28;;;26.92;37.74
17521;BME280;8878;-33.370;-70.552;2023-02-10T03:04:07;91815.16;;;27.00;37.84
17521;BME280;8878;-33.370;-70.552;2023-02-10T03:06:36;91815.94;;;26.97;38.47
17521;BME280;8878;-33.370;-70.552;2023-02-10T03:09:06;91812.69;;;26.84;38.33
17521;BME280;8878;-33.370;-70.552;2023-02-10T03:11:35;91818.84;;;26.81;37.49
17521;BME280;8878;-33.370;-70.552;2023-02-10T03:14:04;91816.50;;;26.80;38.74
17521;BME280;8878;-33.370;-70.552;2023-02-10T03:16:34;91814.75;;;26.58;39.89
17521;BME280;8878;-33.370;-70.552;2023-02-10T03:19:03;91824.19;;;26.34;38.28
17521;BME280;8878;-33.370;-70.552;2023-02-10T03:21:34;91820.88;;;26.51;38.31
17521;BME280;8878;-33.370;-70.552;2023-02-10T03:24:04;91821.66;;;26.51;40.09
17521;BME280;8878;-33.370;-70.552;2023-02-10T03:26:35;91822.34;;;26.41;39.46
17521;BME280;8878;-33.370;-70.552;2023-02-10T03:29:11;91818.38;;;26.32;40.32
17521;BME280;8878;-33.370;-70.552;2023-02-10T03:31:40;91827.53;;;26.24;41.12
17521;BME280;8878;-33.370;-70.552;2023-02-10T03:34:10;91823.00;;;26.31;41.36
17521;BME280;8878;-33.370;-70.552;2023-02-10T03:36:41;91819.16;;;26.32;40.31
17521;BME280;8878;-33.370;-70.552;2023-02-10T03:39:10;91814.47;;;26.29;40.65
17521;BME280;8878;-33.370;-70.552;2023-02-10T03:41:40;91815.53;;;26.21;40.70
17521;BME280;8878;-33.370;-70.552;2023-02-10T03:44:09;91822.03;;;26.17;40.11
17521;BME280;8878;-33.370;-70.552;2023-02-10T03:46:38;91816.25;;;26.15;38.21
17521;BME280;8878;-33.370;-70.552;2023-02-10T03:49:07;91811.31;;;26.24;38.34
17521;BME280;8878;-33.370;-70.552;2023-02-10T03:51:37;91811.97;;;26.13;39.48
17521;BME280;8878;-33.370;-70.552;2023-02-10T03:54:08;91808.78;;;26.04;40.28
17521;BME280;8878;-33.370;-70.552;2023-02-10T03:56:37;91817.59;;;25.98;40.85
17521;BME280;8878;-33.370;-70.552;2023-02-10T03:59:07;91806.97;;;25.82;39.61
17521;BME280;8878;-33.370;-70.552;2023-02-10T04:01:36;91804.94;;;25.76;40.39
17521;BME280;8878;-33.370;-70.552;2023-02-10T04:04:05;91802.28;;;25.79;41.07
17521;BME280;8878;-33.370;-70.552;2023-02-10T04:06:35;91805.38;;;25.78;40.07
17521;BME280;8878;-33.370;-70.552;2023-02-10T04:09:04;91801.75;;;25.66;40.50
17521;BME280;8878;-33.370;-70.552;2023-02-10T04:11:35;91802.97;;;25.72;40.00
17521;BME280;8878;-33.370;-70.552;2023-02-10T04:14:04;91789.34;;;25.62;40.20
17521;BME280;8878;-33.370;-70.552;2023-02-10T04:16:33;91789.00;;;25.63;41.67
17521;BME280;8878;-33.370;-70.552;2023-02-10T04:19:03;91792.78;;;25.32;41.71
17521;BME280;8878;-33.370;-70.552;2023-02-10T04:21:32;91791.88;;;25.21;41.21
17521;BME280;8878;-33.370;-70.552;2023-02-10T04:24:01;91803.91;;;25.27;39.82
17521;BME280;8878;-33.370;-70.552;2023-02-10T04:26:31;91791.97;;;25.28;37.86
17521;BME280;8878;-33.370;-70.552;2023-02-10T04:29:02;91794.09;;;25.42;38.61
17521;BME280;8878;-33.370;-70.552;2023-02-10T04:31:31;91799.50;;;25.46;38.58
17521;BME280;8878;-33.370;-70.552;2023-02-10T04:34:00;91795.00;;;25.53;38.60
17521;BME280;8878;-33.370;-70.552;2023-02-10T04:36:30;91793.19;;;25.61;39.75
17521;BME280;8878;-33.370;-70.552;2023-02-10T04:38:59;91787.31;;;25.55;41.05
17521;BME280;8878;-33.370;-70.552;2023-02-10T04:41:28;91791.16;;;25.54;40.42
17521;BME280;8878;-33.370;-70.552;2023-02-10T04:43:58;91787.94;;;25.45;40.36
17521;BME280;8878;-33.370;-70.552;2023-02-10T04:46:28;91787.16;;;25.45;40.53
17521;BME280;8878;-33.370;-70.552;2023-02-10T04:48:58;91784.75;;;25.36;39.25
17521;BME280;8878;-33.370;-70.552;2023-02-10T04:51:27;91782.13;;;25.43;37.46
17521;BME280;8878;-33.370;-70.552;2023-02-10T04:53:56;91794.19;;;25.49;37.49
17521;BME280;8878;-33.370;-70.552;2023-02-10T04:56:25;91785.19;;;25.42;38.14
17521;BME280;8878;-33.370;-70.552;2023-02-10T04:58:55;91787.75;;;25.31;38.08
17521;BME280;8878;-33.370;-70.552;2023-02-10T05:01:24;91785.31;;;25.22;37.94
17521;BME280;8878;-33.370;-70.552;2023-02-10T05:03:55;91783.81;;;25.25;38.02
17521;BME280;8878;-33.370;-70.552;2023-02-10T05:06:24;91788.38;;;25.21;37.07
17521;BME280;8878;-33.370;-70.552;2023-02-10T05:08:54;91792.59;;;25.18;37.90
17521;BME280;8878;-33.370;-70.552;2023-02-10T05:11:23;91786.63;;;25.06;38.01
17521;BME280;8878;-33.370;-70.552;2023-02-10T05:13:52;91784.38;;;25.11;37.72
17521;BME280;8878;-33.370;-70.552;2023-02-10T05:16:22;91779.03;;;25.15;37.23
17521;BME280;8878;-33.370;-70.552;2023-02-10T05:18:51;91780.19;;;25.14;37.12
17521;BME280;8878;-33.370;-70.552;2023-02-10T05:21:22;91779.66;;;25.05;36.98
17521;BME280;8878;-33.370;-70.552;2023-02-10T05:23:51;91781.13;;;24.99;35.72
17521;BME280;8878;-33.370;-70.552;2023-02-10T05:26:21;91771.63;;;24.85;34.66
17521;BME280;8878;-33.370;-70.552;2023-02-10T05:28:50;91781.69;;;24.88;33.34
17521;BME280;8878;-33.370;-70.552;2023-02-10T05:31:19;91773.91;;;25.06;35.96
17521;BME280;8878;-33.370;-70.552;2023-02-10T05:33:50;91773.53;;;25.08;35.72
17521;BME280;8878;-33.370;-70.552;2023-02-10T05:36:22;91775.03;;;25.05;35.81
17521;BME280;8878;-33.370;-70.552;2023-02-10T05:38:51;91771.03;;;24.95;35.38
17521;BME280;8878;-33.370;-70.552;2023-02-10T05:41:36;91767.88;;;24.90;35.14
17521;BME280;8878;-33.370;-70.552;2023-02-10T05:44:06;91759.06;;;24.93;34.67
17521;BME280;8878;-33.370;-70.552;2023-02-10T05:46:35;91761.13;;;25.03;34.83
17521;BME280;8878;-33.370;-70.552;2023-02-10T05:49:05;91764.06;;;24.94;35.04
17521;BME280;8878;-33.370;-70.552;2023-02-10T05:51:36;91758.31;;;24.96;34.75
17521;BME280;8878;-33.370;-70.552;2023-02-10T05:54:05;91759.53;;;24.99;33.97
17521;BME280;8878;-33.370;-70.552;2023-02-10T05:56:35;91757.34;;;25.08;33.14
17521;BME280;8878;-33.370;-70.552;2023-02-10T05:59:04;91748.19;;;25.16;32.82
17521;BME280;8878;-33.370;-70.552;2023-02-10T06:01:33;91752.72;;;25.08;34.05
17521;BME280;8878;-33.370;-70.552;2023-02-10T06:04:03;91747.66;;;24.80;33.42
17521;BME280;8878;-33.370;-70.552;2023-02-10T06:06:32;91756.13;;;24.79;33.94
17521;BME280;8878;-33.370;-70.552;2023-02-10T06:09:03;91749.84;;;24.71;34.49
17521;BME280;8878;-33.370;-70.552;2023-02-10T06:11:33;91751.41;;;24.72;34.17
17521;BME280;8878;-33.370;-70.552;2023-02-10T06:14:03;91750.72;;;24.79;34.11
17521;BME280;8878;-33.370;-70.552;2023-02-10T06:16:32;91745.91;;;24.65;34.55
17521;BME280;8878;-33.370;-70.552;2023-02-10T06:19:01;91742.81;;;24.67;35.09
17521;BME280;8878;-33.370;-70.552;2023-02-10T06:21:31;91755.22;;;24.71;35.34
17521;BME280;8878;-33.370;-70.552;2023-02-10T06:24:02;91741.69;;;24.68;34.99
17521;BME280;8878;-33.370;-70.552;2023-02-10T06:26:31;91744.69;;;24.63;34.21
17521;BME280;8878;-33.370;-70.552;2023-02-10T06:29:01;91747.81;;;24.65;34.81
17521;BME280;8878;-33.370;-70.552;2023-02-10T06:31:30;91740.44;;;24.62;35.03
17521;BME280;8878;-33.370;-70.552;2023-02-10T06:33:59;91738.81;;;24.57;34.27
17521;BME280;8878;-33.370;-70.552;2023-02-10T06:36:29;91744.03;;;24.69;33.46
17521;BME280;8878;-33.370;-70.552;2023-02-10T06:38:58;91741.25;;;24.66;33.56
17521;BME280;8878;-33.370;-70.552;2023-02-10T06:41:29;91733.66;;;24.71;33.31
17521;BME280;8878;-33.370;-70.552;2023-02-10T06:43:58;91733.66;;;24.71;33.64
17521;BME280;8878;-33.370;-70.552;2023-02-10T06:46:28;91732.22;;;24.54;33.75
17521;BME280;8878;-33.370;-70.552;2023-02-10T06:48:57;91737.03;;;24.42;34.00
17521;BME280;8878;-33.370;-70.552;2023-02-10T06:51:28;91726.72;;;24.25;34.93
17521;BME280;8878;-33.370;-70.552;2023-02-10T06:53:57;91721.84;;;24.11;34.99
17521;BME280;8878;-33.370;-70.552;2023-02-10T06:56:28;91722.50;;;24.04;35.08
17521;BME280;8878;-33.370;-70.552;2023-02-10T06:58:57;91722.38;;;23.97;34.48
17521;BME280;8878;-33.370;-70.552;2023-02-10T07:01:27;91726.97;;;23.97;32.74
17521;BME280;8878;-33.370;-70.552;2023-02-10T07:03:56;91727.59;;;24.29;33.45
17521;BME280;8878;-33.370;-70.552;2023-02-10T07:06:25;91730.91;;;24.45;33.81
17521;BME280;8878;-33.370;-70.552;2023-02-10T07:08:55;91728.84;;;24.61;32.81
17521;BME280;8878;-33.370;-70.552;2023-02-10T07:11:25;91728.53;;;24.66;34.07
17521;BME280;8878;-33.370;-70.552;2023-02-10T07:13:56;91724.31;;;24.65;33.35
17521;BME280;8878;-33.370;-70.552;2023-02-10T07:16:25;91729.50;;;24.51;34.98
17521;BME280;8878;-33.370;-70.552;2023-02-10T07:18:56;91726.38;;;24.26;34.12
17521;BME280;8878;-33.370;-70.552;2023-02-10T07:21:26;91727.47;;;24.22;34.23
17521;BME280;8878;-33.370;-70.552;2023-02-10T07:23:55;91731.53;;;24.35;33.31
17521;BME280;8878;-33.370;-70.552;2023-02-10T07:26:24;91730.41;;;24.36;34.33
17521;BME280;8878;-33.370;-70.552;2023-02-10T07:28:57;91733.44;;;24.34;36.28
17521;BME280;8878;-33.370;-70.552;2023-02-10T07:31:27;91724.75;;;24.22;36.25
17521;BME280;8878;-33.370;-70.552;2023-02-10T07:33:56;91731.38;;;24.05;35.17
17521;BME280;8878;-33.370;-70.552;2023-02-10T07:36:25;91735.19;;;24.04;35.46
17521;BME280;8878;-33.370;-70.552;2023-02-10T07:38:54;91728.19;;;23.99;35.43
17521;BME280;8878;-33.370;-70.552;2023-02-10T07:41:23;91730.59;;;24.04;34.15
17521;BME280;8878;-33.370;-70.552;2023-02-10T07:43:53;91734.25;;;24.15;33.96
17521;BME280;8878;-33.370;-70.552;2023-02-10T07:46:24;91732.69;;;24.14;34.94
17521;BME280;8878;-33.370;-70.552;2023-02-10T07:48:54;91730.16;;;24.22;34.35
17521;BME280;8878;-33.370;-70.552;2023-02-10T07:51:24;91733.84;;;24.13;34.33
17521;BME280;8878;-33.370;-70.552;2023-02-10T07:53:53;91732.94;;;24.06;35.54
17521;BME280;8878;-33.370;-70.552;2023-02-10T07:56:23;91737.47;;;24.02;34.53
17521;BME280;8878;-33.370;-70.552;2023-02-10T07:58:52;91732.16;;;24.05;34.69
17521;BME280;8878;-33.370;-70.552;2023-02-10T08:01:23;91726.44;;;24.10;34.57
17521;BME280;8878;-33.370;-70.552;2023-02-10T08:03:52;91720.00;;;24.15;34.94
17521;BME280;8878;-33.370;-70.552;2023-02-10T08:06:23;91721.91;;;24.14;35.47
17521;BME280;8878;-33.370;-70.552;2023-02-10T08:08:54;91712.19;;;24.10;35.14
17521;BME280;8878;-33.370;-70.552;2023-02-10T08:11:23;91720.94;;;24.03;36.14
17521;BME280;8878;-33.370;-70.552;2023-02-10T08:13:52;91726.19;;;23.96;35.54
17521;BME280;8878;-33.370;-70.552;2023-02-10T08:16:23;91718.84;;;23.93;36.79
17521;BME280;8878;-33.370;-70.552;2023-02-10T08:18:53;91718.41;;;23.91;36.86
17521;BME280;8878;-33.370;-70.552;2023-02-10T08:21:22;91718.28;;;23.84;35.88
17521;BME280;8878;-33.370;-70.552;2023-02-10T08:23:52;91724.09;;;23.86;34.84
17521;BME280;8878;-33.370;-70.552;2023-02-10T08:26:24;91724.63;;;23.95;34.51
17521;BME280;8878;-33.370;-70.552;2023-02-10T08:28:53;91725.72;;;23.91;34.07
17521;BME280;8878;-33.370;-70.552;2023-02-10T08:31:27;91731.59;;;23.96;35.53
17521;BME280;8878;-33.370;-70.552;2023-02-10T08:33:57;91734.63;;;23.95;32.98
17521;BME280;8878;-33.370;-70.552;2023-02-10T08:36:26;91738.53;;;23.97;34.82
17521;BME280;8878;-33.370;-70.552;2023-02-10T08:38:56;91739.53;;;23.89;34.13
17521;BME280;8878;-33.370;-70.552;2023-02-10T08:41:25;91736.06;;;23.89;34.11
17521;BME280;8878;-33.370;-70.552;2023-02-10T08:43:57;91737.56;;;23.86;35.26
17521;BME280;8878;-33.370;-70.552;2023-02-10T08:46:29;91738.16;;;23.76;37.50
17521;BME280;8878;-33.370;-70.552;2023-02-10T08:48:58;91738.75;;;23.66;37.61
17521;BME280;8878;-33.370;-70.552;2023-02-10T08:51:28;91747.44;;;23.59;37.81
17521;BME280;8878;-33.370;-70.552;2023-02-10T08:54:00;91742.28;;;23.51;38.25
17521;BME280;8878;-33.370;-70.552;2023-02-10T08:56:30;91747.50;;;23.43;38.70
17521;BME280;8878;-33.370;-70.552;2023-02-10T08:58:59;91756.88;;;23.50;38.84
17521;BME280;8878;-33.370;-70.552;2023-02-10T09:01:30;91754.84;;;23.47;37.64
17521;BME280;8878;-33.370;-70.552;2023-02-10T09:03:59;91754.63;;;23.52;36.97
17521;BME280;8878;-33.370;-70.552;2023-02-10T09:06:31;91753.41;;;23.49;36.30
17521;BME280;8878;-33.370;-70.552;2023-02-10T09:09:06;91752.16;;;23.47;36.15
17521;BME280;8878;-33.370;-70.552;2023-02-10T09:11:35;91763.88;;;23.54;36.19
17521;BME280;8878;-33.370;-70.552;2023-02-10T09:14:05;91760.69;;;23.49;36.06
17521;BME280;8878;-33.370;-70.552;2023-02-10T09:16:36;91762.00;;;23.39;36.66
17521;BME280;8878;-33.370;-70.552;2023-02-10T09:19:05;91760.81;;;23.36;37.48
17521;BME280;8878;-33.370;-70.552;2023-02-10T09:21:34;91769.44;;;23.26;37.55
17521;BME280;8878;-33.370;-70.552;2023-02-10T09:24:04;91778.81;;;23.17;38.40
17521;BME280;8878;-33.370;-70.552;2023-02-10T09:26:34;91772.66;;;22.81;37.26
17521;BME280;8878;-33.370;-70.552;2023-02-10T09:29:03;91776.06;;;22.78;37.29
17521;BME280;8878;-33.370;-70.552;2023-02-10T09:31:36;91777.41;;;22.88;37.25
17521;BME280;8878;-33.370;-70.552;2023-02-10T09:34:05;91776.44;;;22.96;37.71
17521;BME280;8878;-33.370;-70.552;2023-02-10T09:36:34;91777.31;;;23.00;38.55
17521;BME280;8878;-33.370;-70.552;2023-02-10T09:39:04;91773.56;;;23.04;38.92
17521;BME280;8878;-33.370;-70.552;2023-02-10T09:41:45;91772.72;;;23.00;38.91
17521;BME280;8878;-33.370;-70.552;2023-02-10T09:44:19;91777.31;;;23.00;38.77
17521;BME280;8878;-33.370;-70.552;2023-02-10T09:47:05;91783.56;;;23.04;39.22
17521;BME280;8878;-33.370;-70.552;2023-02-10T09:50:13;91785.81;;;23.02;37.88
17521;BME280;8878;-33.370;-70.552;2023-02-10T09:52:59;91795.09;;;23.04;38.35
17521;BME280;8878;-33.370;-70.552;2023-02-10T09:55:32;91786.69;;;23.06;38.24
17521;BME280;8878;-33.370;-70.552;2023-02-10T09:58:10;91796.56;;;23.02;37.35
17521;BME280;8878;-33.370;-70.552;2023-02-10T10:00:43;91796.22;;;23.03;36.66
17521;BME280;8878;-33.370;-70.552;2023-02-10T10:03:17;91803.44;;;22.99;36.48
17521;BME280;8878;-33.370;-70.552;2023-02-10T10:05:55;91800.41;;;23.01;34.91
17521;BME280;8878;-33.370;-70.552;2023-02-10T10:08:32;91803.03;;;23.17;36.04
17521;BME280;8878;-33.370;-70.552;2023-02-10T10:11:07;91796.88;;;23.16;35.62
17521;BME280;8878;-33.370;-70.552;2023-02-10T10:13:43;91801.13;;;23.17;36.69
17521;BME280;8878;-33.370;-70.552;2023-02-10T10:16:22;91812.19;;;23.12;36.50
17521;BME280;8878;-33.370;-70.552;2023-02-10T10:19:06;91816.63;;;22.89;35.87
17521;BME280;8878;-33.370;-70.552;2023-02-10T10:21:46;91817.25;;;22.82;37.05
17521;BME280;8878;-33.370;-70.552;2023-02-10T10:24:39;91824.09;;;22.64;36.83
17521;BME280;8878;-33.370;-70.552;2023-02-10T10:27:23;91823.75;;;22.65;36.24
17521;BME280;8878;-33.370;-70.552;2023-02-10T10:29:55;91820.19;;;22.61;36.72
17521;BME280;8878;-33.370;-70.552;2023-02-10T10:32:35;91817.75;;;22.88;37.53
17521;BME280;8878;-33.370;-70.552;2023-02-10T10:35:14;91820.28;;;22.96;36.75
17521;BME280;8878;-33.370;-70.552;2023-02-10T10:37:44;91816.91;;;22.84;36.18
17521;BME280;8878;-33.370;-70.552;2023-02-10T10:40:17;91818.53;;;22.88;35.79
17521;BME280;8878;-33.370;-70.552;2023-02-10T10:42:49;91826.97;;;22.87;36.20
17521;BME280;8878;-33.370;-70.552;2023-02-10T10:45:25;91833.50;;;22.86;36.83
17521;BME280;8878;-33.370;-70.552;2023-02-10T10:47:58;91828.97;;;22.90;37.50
17521;BME280;8878;-33.370;-70.552;2023-02-10T10:50:32;91843.19;;;22.90;37.31
17521;BME280;8878;-33.370;-70.552;2023-02-10T10:53:05;91834.44;;;22.78;36.72
17521;BME280;8878;-33.370;-70.552;2023-02-10T10:55:42;91838.25;;;22.77;37.14
17521;BME280;8878;-33.370;-70.552;2023-02-10T10:58:20;91837.38;;;22.88;36.54
17521;BME280;8878;-33.370;-70.552;2023-02-10T11:00:51;91834.22;;;23.02;37.18
17521;BME280;8878;-33.370;-70.552;2023-02-10T11:03:21;91849.53;;;22.98;36.08
17521;BME280;8878;-33.370;-70.552;2023-02-10T11:06:04;91851.97;;;22.87;35.90
17521;BME280;8878;-33.370;-70.552;2023-02-10T11:08:36;91858.03;;;23.00;35.45
17521;BME280;8878;-33.370;-70.552;2023-02-10T11:11:10;91849.09;;;22.96;35.41
17521;BME280;8878;-33.370;-70.552;2023-02-10T11:13:49;91855.00;;;23.01;35.37
17521;BME280;8878;-33.370;-70.552;2023-02-10T11:16:20;91854.63;;;23.19;34.90
17521;BME280;8878;-33.370;-70.552;2023-02-10T11:18:54;91863.50;;;23.38;35.38
17521;BME280;8878;-33.370;-70.552;2023-02-10T11:21:36;91862.03;;;23.41;35.17
17521;BME280;8878;-33.370;-70.552;2023-02-10T11:24:17;91868.41;;;23.49;35.53
17521;BME280;8878;-33.370;-70.552;2023-02-10T11:26:58;91871.44;;;23.66;35.34
17521;BME280;8878;-33.370;-70.552;2023-02-10T11:29:30;91865.03;;;23.71;34.79
17521;BME280;8878;-33.370;-70.552;2023-02-10T11:32:00;91860.47;;;23.75;34.87
17521;BME280;8878;-33.370;-70.552;2023-02-10T11:34:31;91864.59;;;23.88;35.00
17521;BME280;8878;-33.370;-70.552;2023-02-10T11:37:12;91863.91;;;23.72;35.39
17521;BME280;8878;-33.370;-70.552;2023-02-10T11:39:44;91869.13;;;23.65;36.17
17521;BME280;8878;-33.370;-70.552;2023-02-10T11:42:18;91873.09;;;23.71;35.93
17521;BME280;8878;-33.370;-70.552;2023-02-10T11:44:54;91877.53;;;23.79;35.94
17521;BME280;8878;-33.370;-70.552;2023-02-10T11:47:25;91878.00;;;23.85;34.71
17521;BME280;8878;-33.370;-70.552;2023-02-10T11:49:54;91875.53;;;23.95;34.10
17521;BME280;8878;-33.370;-70.552;2023-02-10T11:52:27;91882.50;;;24.15;34.37
17521;BME280;8878;-33.370;-70.552;2023-02-10T11:54:57;91886.13;;;24.23;34.16
17521;BME280;8878;-33.370;-70.552;2023-02-10T11:57:34;91885.75;;;24.44;34.06
17521;BME280;8878;-33.370;-70.552;2023-02-10T12:00:27;91895.28;;;24.61;33.96
17521;BME280;8878;-33.370;-70.552;2023-02-10T12:03:33;91902.78;;;24.90;33.22
17521;BME280;8878;-33.370;-70.552;2023-02-10T12:06:06;91900.13;;;25.16;32.76
17521;BME280;8878;-33.370;-70.552;2023-02-10T12:08:45;91903.56;;;25.36;32.12
17521;BME280;8878;-33.370;-70.552;2023-02-10T12:11:26;91907.41;;;25.35;30.93
17521;BME280;8878;-33.370;-70.552;2023-02-10T12:14:03;91904.59;;;25.54;31.06
17521;BME280;8878;-33.370;-70.552;2023-02-10T12:16:41;91901.06;;;25.50;31.06
17521;BME280;8878;-33.370;-70.552;2023-02-10T12:19:23;91906.63;;;25.87;31.73
17521;BME280;8878;-33.370;-70.552;2023-02-10T12:22:03;91903.63;;;25.92;30.59
17521;BME280;8878;-33.370;-70.552;2023-02-10T12:24:58;91903.06;;;26.09;31.35
17521;BME280;8878;-33.370;-70.552;2023-02-10T12:27:49;91902.28;;;26.09;31.63
17521;BME280;8878;-33.370;-70.552;2023-02-10T12:30:28;91908.44;;;26.06;31.90
17521;BME280;8878;-33.370;-70.552;2023-02-10T12:33:07;91910.81;;;26.11;30.91
17521;BME280;8878;-33.370;-70.552;2023-02-10T12:35:52;91906.72;;;26.24;31.86
17521;BME280;8878;-33.370;-70.552;2023-02-10T12:38:36;91914.56;;;26.03;32.16
17521;BME280;8878;-33.370;-70.552;2023-02-10T12:41:17;91923.81;;;26.02;32.93
17521;BME280;8878;-33.370;-70.552;2023-02-10T12:44:10;91921.91;;;26.32;32.13
17521;BME280;8878;-33.370;-70.552;2023-02-10T12:46:48;91922.44;;;26.45;32.05
17521;BME280;8878;-33.370;-70.552;2023-02-10T12:49:32;91922.78;;;26.40;31.41
17521;BME280;8878;-33.370;-70.552;2023-02-10T12:52:06;91932.50;;;26.15;32.01
17521;BME280;8878;-33.370;-70.552;2023-02-10T12:54:43;91921.13;;;26.32;32.57
17521;BME280;8878;-33.370;-70.552;2023-02-10T12:57:21;91917.22;;;26.29;33.00
17521;BME280;8878;-33.370;-70.552;2023-02-10T12:59:57;91927.09;;;26.15;33.28
17521;BME280;8878;-33.370;-70.552;2023-02-10T13:02:32;91923.03;;;26.28;33.49
17521;BME280;8878;-33.370;-70.552;2023-02-10T13:05:08;91933.75;;;26.24;33.30
17521;BME280;8878;-33.370;-70.552;2023-02-10T13:07:43;91930.03;;;26.66;32.12
17521;BME280;8878;-33.370;-70.552;2023-02-10T13:10:25;91927.13;;;26.81;32.13
17521;BME280;8878;-33.370;-70.552;2023-02-10T13:13:02;91930.59;;;26.82;33.07
17521;BME280;8878;-33.370;-70.552;2023-02-10T13:15:35;91927.16;;;26.85;32.24